createdAt,value
2019-04-23T00:02:56.661Z,101155.33
2019-04-23T00:05:39.462Z,101161.96
2019-04-23T00:07:59.182Z,101158.19
2019-04-23T00:10:30.321Z,101157.55
2019-04-23T00:12:59.397Z,101151.33
2019-04-23T00:15:51.720Z,101159.64
2019-04-23T00:18:27.611Z,101156.09
2019-04-23T00:20:47.922Z,101161.23
2019-04-23T00:23:25.778Z,101151.33
2019-04-23T00:28:36.068Z,101150.91
2019-04-23T00:31:13.728Z,101155.67
2019-04-23T00:33:37.361Z,101153.54
2019-04-23T00:36:19.646Z,101146.49
2019-04-23T00:38:47.314Z,101147.33
2019-04-23T00:41:15.979Z,101146.49
2019-04-23T00:43:52.745Z,101140.36
2019-04-23T00:46:22.137Z,101142.48
2019-04-23T00:51:22.756Z,101138.98
2019-04-23T00:53:57.331Z,101142.91
2019-04-23T00:59:00.407Z,101136.77
2019-04-23T01:01:38.885Z,101137.30
2019-04-23T01:04:05.817Z,101141.41
2019-04-23T01:06:32.469Z,101142.17
2019-04-23T01:09:02.210Z,101138.26
2019-04-23T01:11:39.247Z,101135.10
2019-04-23T01:14:11.529Z,101126.99
2019-04-23T01:16:37.408Z,101125.73
2019-04-23T01:19:35.183Z,101127.52
2019-04-23T01:21:38.842Z,101132.05
2019-04-23T01:24:15.852Z,101123.30
2019-04-23T01:30:04.675Z,101119.17
2019-04-23T01:32:36.949Z,101116.86
2019-04-23T01:35:17.581Z,101106.12
2019-04-23T01:37:41.168Z,101108.64
2019-04-23T01:40:22.002Z,101107.16
2019-04-23T01:53:08.598Z,101103.48
2019-04-23T01:55:28.009Z,101104.20
2019-04-23T01:58:20.186Z,101095.58
2019-04-23T02:00:53.199Z,101095.46
2019-04-23T02:03:09.369Z,101093.64
2019-04-23T02:08:09.116Z,101093.43
2019-04-23T02:13:16.593Z,101085.66
2019-04-23T02:15:53.384Z,101086.41
2019-04-23T02:18:23.100Z,101083.08
2019-04-23T02:20:59.497Z,101078.72
2019-04-23T02:23:57.355Z,101073.46
2019-04-23T02:26:20.167Z,101067.44
2019-04-23T02:29:03.571Z,101070.07
2019-04-23T02:34:17.126Z,101069.00
2019-04-23T02:36:57.103Z,101068.69
2019-04-23T02:42:23.292Z,101071.37
2019-04-23T02:44:34.249Z,101072.80
2019-04-23T02:47:17.124Z,101072.71
2019-04-23T02:49:44.314Z,101067.61
2019-04-23T02:57:20.214Z,101057.95
2019-04-23T03:02:37.061Z,101057.17
2019-04-23T03:04:57.749Z,101046.36
2019-04-23T03:23:44.297Z,101032.00
2019-04-23T03:26:14.091Z,101033.49
2019-04-23T03:32:48.410Z,101033.60
2019-04-23T03:37:02.220Z,101026.25
2019-04-23T03:38:48.646Z,101036.86
2019-04-23T03:44:01.609Z,101030.88
2019-04-23T03:48:52.942Z,101024.17
2019-04-23T03:51:34.276Z,101029.69
2019-04-23T03:54:16.298Z,101019.26
2019-04-23T03:56:52.607Z,101017.68
2019-04-23T03:59:15.522Z,101019.81
2019-04-23T04:09:33.145Z,101014.34
2019-04-23T04:11:34.672Z,101016.30
2019-04-23T04:32:01.049Z,101000.06
2019-04-23T04:39:42.857Z,101003.05
2019-04-23T04:42:10.453Z,101006.00
2019-04-23T04:49:51.686Z,101010.14
2019-04-23T04:54:39.772Z,101010.05
2019-04-23T04:57:30.187Z,101012.82
2019-04-23T05:05:02.359Z,100997.98
2019-04-23T05:07:27.600Z,100995.38
2019-04-23T05:10:21.855Z,100996.89
2019-04-23T05:15:04.791Z,100996.77
2019-04-23T05:20:24.017Z,100979.46
2019-04-23T05:23:02.794Z,100978.83
2019-04-23T05:25:17.529Z,100979.95
2019-04-23T05:27:56.524Z,100967.45
2019-04-23T05:30:25.119Z,100970.73
2019-04-23T05:32:51.916Z,100969.88
2019-04-23T05:35:39.909Z,100965.02
2019-04-23T05:38:05.335Z,100967.69
2019-04-23T05:40:30.600Z,100970.91
2019-04-23T05:45:18.478Z,100967.55
2019-04-23T05:47:53.420Z,100967.82
2019-04-23T05:50:30.501Z,100965.83
2019-04-23T05:52:54.141Z,100969.77
2019-04-23T05:55:34.022Z,100963.61
2019-04-23T05:57:44.569Z,100975.95
2019-04-23T06:00:26.209Z,100966.31
2019-04-23T06:02:56.910Z,100964.98
2019-04-23T06:07:49.351Z,100961.77
2019-04-23T06:10:19.733Z,100971.95
2019-04-23T06:12:50.689Z,100969.53
2019-04-23T06:15:20.600Z,100961.03
2019-04-23T06:17:54.163Z,100951.17
2019-04-23T06:20:31.623Z,100958.46
2019-04-23T06:22:56.062Z,100954.36
2019-04-23T06:27:57.562Z,100950.92
2019-04-23T06:30:25.787Z,100956.31
2019-04-23T06:32:55.172Z,100958.47
2019-04-23T06:35:23.832Z,100950.39
2019-04-23T06:38:12.484Z,100942.90
2019-04-23T06:40:25.207Z,100942.83
2019-04-23T06:43:05.352Z,100940.59
2019-04-23T06:45:32.126Z,100939.72
2019-04-23T06:48:13.714Z,100935.92
2019-04-23T06:50:35.471Z,100929.73
2019-04-23T06:52:59.508Z,100925.73
2019-04-23T06:55:38.720Z,100926.92
2019-04-23T06:58:15.102Z,100933.06
2019-04-23T07:00:42.036Z,100921.09
2019-04-23T07:03:14.802Z,100922.59
2019-04-23T07:06:11.973Z,100907.01
2019-04-23T07:08:44.396Z,100919.55
2019-04-23T07:11:08.096Z,100905.28
2019-04-23T07:13:44.580Z,100906.77
2019-04-23T07:15:58.481Z,100916.53
2019-04-23T07:18:29.273Z,100905.64
2019-04-23T07:21:06.505Z,100916.09
2019-04-23T07:23:38.056Z,100902.34
2019-04-23T07:26:21.262Z,100895.55
2019-04-23T07:28:37.273Z,100895.47
2019-04-23T07:31:18.355Z,100886.38
2019-04-23T07:33:45.922Z,100883.94
2019-04-23T07:36:08.684Z,100885.17
2019-04-23T07:38:47.352Z,100876.01
2019-04-23T07:41:32.863Z,100878.48
2019-04-23T07:44:08.583Z,100874.76
2019-04-23T07:46:33.883Z,100871.06
2019-04-23T07:48:55.984Z,100860.21
2019-04-23T07:51:29.301Z,100869.64
2019-04-23T07:54:07.972Z,100874.13
2019-04-23T07:56:27.596Z,100856.23
2019-04-23T07:59:05.722Z,100862.89
2019-04-23T08:01:27.120Z,100856.37
2019-04-23T08:04:01.947Z,100867.52
2019-04-23T08:06:31.980Z,100847.09
2019-04-23T08:09:04.133Z,100857.09
2019-04-23T08:18:57.594Z,100843.13
2019-04-23T08:21:45.956Z,100854.04
2019-04-23T08:24:18.235Z,100849.09
2019-04-23T08:26:56.190Z,100841.28
2019-04-23T08:29:26.529Z,100835.15
2019-04-23T08:32:02.522Z,100831.95
2019-04-23T08:34:39.668Z,100823.36
2019-04-23T08:37:04.951Z,100815.48
2019-04-23T08:39:37.232Z,100816.61
2019-04-23T08:42:21.786Z,100824.08
2019-04-23T08:44:38.850Z,100817.78
2019-04-23T08:49:40.334Z,100806.88
2019-04-23T08:57:24.028Z,100803.97
2019-04-23T08:59:47.355Z,100793.31
2019-04-23T09:03:16.816Z,100789.03
2019-04-23T09:04:45.594Z,100781.64
2019-04-23T09:09:45.357Z,100775.33
2019-04-23T09:12:16.795Z,100781.22
2019-04-23T09:14:38.219Z,100762.34
2019-04-23T09:17:10.653Z,100771.36
2019-04-23T09:19:51.890Z,100761.08
2019-04-23T09:22:14.445Z,100752.28
2019-04-23T09:24:44.893Z,100758.08
2019-04-23T09:27:21.104Z,100754.48
2019-04-23T09:29:47.217Z,100744.72
2019-04-23T09:32:22.405Z,100737.77
2019-04-23T09:37:48.812Z,100746.19
2019-04-23T09:40:31.489Z,100729.67
2019-04-23T09:45:48.110Z,100718.69
2019-04-23T09:48:06.671Z,100713.82
2019-04-23T09:50:41.971Z,100713.09
2019-04-23T09:58:11.751Z,100693.91
2019-04-23T10:03:07.615Z,100688.91
2019-04-23T10:05:30.980Z,100693.27
2019-04-23T10:08:01.611Z,100681.17
2019-04-23T10:10:22.608Z,100695.34
2019-04-23T10:12:51.197Z,100671.94
2019-04-23T10:15:26.250Z,100671.37
2019-04-23T10:17:50.054Z,100662.70
2019-04-23T10:20:18.648Z,100662.64
2019-04-23T10:22:48.263Z,100671.02
2019-04-23T10:25:17.273Z,100662.97
2019-04-23T10:27:52.969Z,100672.38
2019-04-23T10:30:17.545Z,100663.30
2019-04-23T10:32:47.565Z,100661.73
2019-04-23T10:35:25.619Z,100653.28
2019-04-23T10:37:52.889Z,100639.33
2019-04-23T10:40:22.948Z,100640.81
2019-04-23T10:42:48.382Z,100633.28
2019-04-23T10:45:51.339Z,100626.81
2019-04-23T10:54:03.460Z,100623.34
2019-04-23T10:56:22.352Z,100619.20
2019-04-23T10:58:38.666Z,100609.91
2019-04-23T11:01:14.761Z,100618.54
2019-04-23T11:03:56.546Z,100612.75
2019-04-23T11:06:26.853Z,100611.29
2019-04-23T11:08:40.644Z,100598.06
2019-04-23T11:11:23.581Z,100589.87
2019-04-23T11:14:05.404Z,100582.40
2019-04-23T11:16:45.804Z,100581.91
2019-04-23T11:21:28.550Z,100578.84
2019-04-23T11:24:04.842Z,100570.33
2019-04-23T11:26:28.599Z,100578.38
2019-04-23T11:28:52.090Z,100590.91
2019-04-23T11:34:01.907Z,100566.77
2019-04-23T11:36:49.959Z,100559.93
2019-04-23T11:41:34.273Z,100572.73
2019-04-23T11:43:57.656Z,100560.43
2019-04-23T11:46:51.303Z,100560.43
2019-04-23T11:49:22.387Z,100556.83
2019-04-23T11:56:51.457Z,100570.66
2019-04-23T11:59:06.761Z,100539.28
2019-04-23T12:01:42.800Z,100528.77
2019-04-23T12:04:14.076Z,100524.64
2019-04-23T12:06:45.954Z,100544.89
2019-04-23T12:09:25.941Z,100529.91
2019-04-23T12:27:06.187Z,100521.30
2019-04-23T12:34:59.425Z,100504.67
2019-04-23T12:40:15.038Z,100492.75
2019-04-23T12:45:18.000Z,100503.53
2019-04-23T12:57:40.275Z,100479.67
2019-04-23T13:00:05.276Z,100474.69
2019-04-23T13:02:44.593Z,100479.38
2019-04-23T13:05:12.157Z,100471.64
2019-04-23T13:10:09.932Z,100456.88
2019-04-23T13:12:47.984Z,100458.05
2019-04-23T13:15:13.935Z,100457.47
2019-04-23T13:25:19.582Z,100438.88
2019-04-23T13:28:02.764Z,100426.89
2019-04-23T13:30:23.168Z,100431.06
2019-04-23T13:32:52.176Z,100425.44
2019-04-23T13:37:58.932Z,100429.38
2019-04-23T13:40:24.207Z,100416.91
2019-04-23T13:42:52.532Z,100421.53
2019-04-23T13:45:49.737Z,100399.88
2019-04-23T13:48:06.127Z,100415.38
2019-04-23T13:53:12.420Z,100394.47
2019-04-23T13:55:18.336Z,100412.42
2019-04-23T14:00:36.301Z,100406.08
2019-04-23T14:02:50.346Z,100431.64
2019-04-23T14:05:33.129Z,100411.66
2019-04-23T14:08:02.661Z,100411.30
2019-04-23T14:13:17.917Z,100392.52
2019-04-23T14:15:42.867Z,100386.11
2019-04-23T14:18:20.842Z,100386.99
2019-04-23T14:20:35.294Z,100393.13
2019-04-23T14:23:14.148Z,100402.87
2019-04-23T14:25:40.255Z,100392.64
2019-04-23T14:33:12.026Z,100382.38
2019-04-23T14:35:40.228Z,100397.08
2019-04-23T14:40:54.160Z,100367.09
2019-04-23T14:45:52.578Z,100394.28
2019-04-23T14:50:46.913Z,100374.58
2019-04-23T14:55:57.187Z,100380.69
2019-04-23T15:01:08.405Z,100362.14
2019-04-23T15:03:27.138Z,100362.95
2019-04-23T15:06:04.870Z,100366.53
2019-04-23T15:11:06.818Z,100355.46
2019-04-23T15:13:22.768Z,100366.27
2019-04-23T15:16:03.076Z,100371.81
2019-04-23T15:18:55.856Z,100372.36
2019-04-23T15:24:00.775Z,100372.06
2019-04-23T15:28:34.128Z,100368.71
2019-04-23T15:34:00.929Z,100358.72
2019-04-23T15:36:36.883Z,100361.47
2019-04-23T15:39:07.977Z,100349.84
2019-04-23T15:43:57.738Z,100350.14
2019-04-23T15:46:25.432Z,100349.57
2019-04-23T15:49:01.488Z,100356.22
2019-04-23T15:53:56.674Z,100346.53
2019-04-23T16:01:31.952Z,100348.17
2019-04-23T16:03:29.017Z,100347.88
2019-04-23T16:05:57.403Z,100347.58
2019-04-23T16:11:33.273Z,100341.77
2019-04-23T16:14:10.221Z,100373.56
2019-04-23T16:16:30.053Z,100345.59
2019-04-23T16:19:19.046Z,100331.20
2019-04-23T16:24:19.528Z,100346.89
2019-04-23T16:32:04.238Z,100343.80
2019-04-23T16:34:27.265Z,100332.20
2019-04-23T16:36:54.890Z,100330.77
2019-04-23T16:39:16.552Z,100334.63
2019-04-23T16:41:54.790Z,100334.32
2019-04-23T16:44:29.456Z,100334.02
2019-04-23T16:49:34.720Z,100335.68
2019-04-23T16:51:45.898Z,100328.77
2019-04-23T16:54:25.097Z,100337.60
2019-04-23T16:59:18.651Z,100329.54
2019-04-23T17:02:01.591Z,100321.22
2019-04-23T17:06:54.985Z,100329.47
2019-04-23T17:09:40.351Z,100342.75
2019-04-23T17:11:59.141Z,100331.64
2019-04-23T17:14:21.351Z,100325.53
2019-04-23T17:16:59.769Z,100339.61
2019-04-23T17:19:26.214Z,100347.88
2019-04-23T17:21:58.180Z,100325.41
2019-04-23T17:26:56.707Z,100347.67
2019-04-23T17:31:45.422Z,100334.32
2019-04-23T17:34:30.783Z,100345.34
2019-04-23T17:37:07.298Z,100352.77
2019-04-23T17:39:57.909Z,100350.55
2019-04-23T17:42:19.723Z,100355.19
2019-04-23T17:55:13.329Z,100359.42
2019-04-23T17:57:37.622Z,100358.28
2019-04-23T18:02:55.630Z,100344.92
2019-04-23T18:12:43.848Z,100356.03
2019-04-23T18:15:13.073Z,100349.06
2019-04-23T18:17:43.387Z,100359.27
2019-04-23T18:20:24.887Z,100351.27
2019-04-23T18:23:00.784Z,100348.44
2019-04-23T18:25:37.689Z,100343.14
2019-04-23T18:28:03.500Z,100344.20
2019-04-23T18:30:40.722Z,100334.50
2019-04-23T18:35:36.043Z,100354.32
2019-04-23T18:40:58.888Z,100355.19
2019-04-23T18:46:04.339Z,100354.17
2019-04-23T18:56:05.991Z,100356.81
2019-04-23T18:58:47.555Z,100356.33
2019-04-23T19:01:05.629Z,100350.66
2019-04-23T19:03:48.125Z,100352.80
2019-04-23T19:06:23.222Z,100354.63
2019-04-23T19:11:48.579Z,100359.03
2019-04-23T19:14:30.511Z,100346.30
2019-04-23T19:16:41.590Z,100347.08
2019-04-23T19:19:01.422Z,100353.69
2019-04-23T19:21:57.305Z,100357.38
2019-04-23T19:24:09.502Z,100346.03
2019-04-23T19:31:46.045Z,100340.85
2019-04-23T19:36:49.076Z,100338.98
2019-04-23T19:39:19.333Z,100338.36
2019-04-23T19:41:57.717Z,100344.59
2019-04-23T19:44:08.965Z,100344.02
2019-04-23T19:49:15.063Z,100332.96
2019-04-23T19:54:16.698Z,100334.83
2019-04-23T19:59:15.624Z,100335.92
2019-04-23T20:01:53.333Z,100330.65
2019-04-23T20:04:04.135Z,100333.22
2019-04-23T20:09:30.273Z,100337.24
2019-04-23T20:11:50.552Z,100331.12
2019-04-23T20:14:09.558Z,100333.09
2019-04-23T20:17:21.377Z,100337.17
2019-04-23T20:19:23.758Z,100333.33
2019-04-23T20:22:06.194Z,100331.55
2019-04-23T20:26:59.865Z,100328.52
2019-04-23T20:36:53.258Z,100316.21
2019-04-23T20:39:33.029Z,100323.58
2019-04-23T20:42:10.893Z,100315.61
2019-04-23T20:44:39.562Z,100324.73
2019-04-23T20:49:42.369Z,100316.70
2019-04-23T20:52:05.018Z,100315.45
2019-04-23T20:54:42.947Z,100316.38
2019-04-23T20:57:31.526Z,100314.16
2019-04-23T20:59:57.252Z,100305.77
2019-04-23T21:05:19.555Z,100302.34
2019-04-23T21:12:50.737Z,100308.27
2019-04-23T21:15:10.209Z,100297.23
2019-04-23T21:17:46.845Z,100305.71
2019-04-23T21:20:14.451Z,100298.75
2019-04-23T21:22:29.815Z,100300.12
2019-04-23T21:25:06.094Z,100296.35
2019-04-23T21:27:57.544Z,100293.40
2019-04-23T21:30:03.535Z,100292.02
2019-04-23T21:32:41.003Z,100293.89
2019-04-23T21:37:49.982Z,100296.44
2019-04-23T21:40:42.455Z,100298.30
2019-04-23T21:43:02.785Z,100291.77
2019-04-23T21:45:31.899Z,100296.01
2019-04-23T21:48:02.427Z,100291.97
2019-04-23T21:50:39.464Z,100295.61
2019-04-23T21:52:56.393Z,100295.38
2019-04-23T21:55:35.249Z,100299.04
2019-04-23T22:00:34.673Z,100293.20
2019-04-23T22:03:02.431Z,100291.53
2019-04-23T22:05:37.815Z,100295.74
2019-04-23T22:10:26.274Z,100292.50
2019-04-23T22:15:34.560Z,100291.81
2019-04-23T22:23:05.140Z,100279.91
2019-04-23T22:25:36.837Z,100274.90
2019-04-23T22:30:30.679Z,100272.64
2019-04-23T22:35:30.166Z,100280.59
2019-04-23T22:38:06.750Z,100274.92
2019-04-23T22:40:25.917Z,100279.31
2019-04-23T22:50:31.115Z,100279.81
2019-04-23T22:53:02.026Z,100273.20
2019-04-23T22:55:34.870Z,100270.97
2019-04-23T22:58:04.726Z,100272.25
2019-04-23T23:00:36.080Z,100270.19
2019-04-23T23:03:24.340Z,100270.28
2019-04-23T23:08:24.093Z,100263.33
2019-04-23T23:13:33.154Z,100261.09
2019-04-23T23:16:06.857Z,100257.39
2019-04-23T23:21:04.122Z,100252.27
2019-04-23T23:23:21.518Z,100258.91
2019-04-23T23:26:02.428Z,100254.27
2019-04-23T23:28:28.709Z,100253.67
2019-04-23T23:31:04.051Z,100253.71
2019-04-23T23:35:58.954Z,100253.56
2019-04-23T23:38:36.693Z,100248.55
2019-04-23T23:41:12.696Z,100258.69
2019-04-23T23:48:31.381Z,100253.69
2019-04-23T23:51:17.107Z,100249.49
2019-04-23T23:53:39.758Z,100242.27
2019-04-23T23:56:04.802Z,100252.88
2019-04-23T23:58:55.297Z,100255.45
